Time;durP1;ratioP1;P1;durP2;ratioP2;P2;SDS_P1;SDS_P2;PMS_P1;PMS_P2;Temp;Humidity;BMP_temperature;BMP_pressure;BME280_temperature;BME280_humidity;BME280_pressure;Samples;Min_cycle;Max_cycle;Signal;HPM_P1;HPM_P2
2023/12/06 00:01:25;;;;;;;;;;;21.00;59.20;;;;;;5084629;28;19916;-36
2023/12/06 00:03:51;;;;;;;;;;;21.10;59.20;;;;;;5090735;28;19917;-36
2023/12/06 00:06:17;;;;;;;;;;;21.10;59.20;;;;;;5094388;28;19918;-36
2023/12/06 00:08:43;;;;;;;;;;;21.10;59.00;;;;;;5093629;28;20559;-36
2023/12/06 00:11:09;;;;;;;;;;;21.10;59.00;;;;;;5094311;28;19908;-36
2023/12/06 00:13:35;;;;;;;;;;;21.10;59.10;;;;;;5093621;28;19933;-37
2023/12/06 00:16:01;;;;;;;;;;;21.00;59.20;;;;;;5095970;28;19912;-37
2023/12/06 00:18:27;;;;;;;;;;;21.00;59.20;;;;;;5100172;28;19908;-37
2023/12/06 00:20:53;;;;;;;;;;;21.00;59.00;;;;;;5099194;28;19949;-36
2023/12/06 00:23:19;;;;;;;;;;;21.10;59.10;;;;;;5100473;28;19975;-36
2023/12/06 00:25:45;;;;;;;;;;;21.10;59.10;;;;;;5081988;28;19912;-36
2023/12/06 00:28:11;;;;;;;;;;;21.10;58.80;;;;;;5093682;28;19933;-37
2023/12/06 00:30:37;;;;;;;;;;;21.10;58.90;;;;;;5093972;28;19911;-36
2023/12/06 00:33:03;;;;;;;;;;;21.10;59.10;;;;;;5098966;28;19935;-37
2023/12/06 00:35:29;;;;;;;;;;;21.00;58.90;;;;;;5097044;28;20574;-36
2023/12/06 00:37:55;;;;;;;;;;;21.00;58.90;;;;;;5080421;28;19939;-37
2023/12/06 00:40:21;;;;;;;;;;;21.00;58.90;;;;;;5098899;28;19908;-36
2023/12/06 00:42:47;;;;;;;;;;;21.00;59.00;;;;;;5103397;28;19916;-36
2023/12/06 00:45:13;;;;;;;;;;;21.10;59.00;;;;;;5103160;28;19916;-36
2023/12/06 00:47:38;;;;;;;;;;;21.10;59.00;;;;;;5104760;28;19919;-36
2023/12/06 00:50:05;;;;;;;;;;;21.10;58.70;;;;;;5099124;28;19927;-37
2023/12/06 00:52:31;;;;;;;;;;;21.10;58.90;;;;;;5107061;28;19961;-36
2023/12/06 00:54:57;;;;;;;;;;;21.10;59.40;;;;;;5099908;28;20343;-36
2023/12/06 00:57:23;;;;;;;;;;;21.10;59.50;;;;;;5098737;28;19951;-37
2023/12/06 00:59:49;;;;;;;;;;;21.10;59.80;;;;;;5103661;28;19946;-39
2023/12/06 01:02:14;;;;;;;;;;;21.00;59.80;;;;;;5101780;28;19919;-36
2023/12/06 01:04:40;;;;;;;;;;;21.10;59.70;;;;;;5097201;28;19916;-36
2023/12/06 01:07:06;;;;;;;;;;;21.10;59.60;;;;;;5097842;28;19965;-37
2023/12/06 01:09:32;;;;;;;;;;;21.20;59.50;;;;;;5101176;28;19912;-36
2023/12/06 01:11:58;;;;;;;;;;;21.10;59.40;;;;;;5099820;28;19912;-36
2023/12/06 01:14:24;;;;;;;;;;;21.10;59.30;;;;;;5097743;28;19934;-37
2023/12/06 01:16:50;;;;;;;;;;;21.10;59.40;;;;;;5103490;28;19911;-36
2023/12/06 01:19:16;;;;;;;;;;;21.10;59.30;;;;;;5100232;28;20689;-37
2023/12/06 01:21:42;;;;;;;;;;;21.10;59.40;;;;;;5102019;28;19943;-37
2023/12/06 01:24:08;;;;;;;;;;;21.10;59.20;;;;;;5099850;28;20291;-36
2023/12/06 01:26:34;;;;;;;;;;;21.20;59.20;;;;;;5095467;28;19912;-36
2023/12/06 01:29:03;;;;;;;;;;;21.10;58.80;;;;;;5098085;28;19912;-36
2023/12/06 01:31:29;;;;;;;;;;;21.10;59.00;;;;;;5104084;28;19951;-36
2023/12/06 01:33:55;;;;;;;;;;;21.10;59.20;;;;;;5097323;28;19933;-36
2023/12/06 01:36:21;;;;;;;;;;;21.00;59.10;;;;;;5097926;28;19971;-37
2023/12/06 01:38:47;;;;;;;;;;;21.00;59.10;;;;;;5098069;28;19994;-37
2023/12/06 01:41:13;;;;;;;;;;;20.90;59.10;;;;;;5101831;28;19978;-36
2023/12/06 01:43:43;;;;;;;;;;;21.00;59.00;;;;;;5100025;28;20249;-37
2023/12/06 01:46:29;;;;;;;;;;;21.00;59.00;;;;;;5084423;28;19984;-37
2023/12/06 01:48:55;;;;;;;;;;;21.10;58.90;;;;;;5040791;28;19956;-37
2023/12/06 01:51:21;;;;;;;;;;;21.10;59.20;;;;;;5040571;28;19909;-37
2023/12/06 01:53:47;;;;;;;;;;;21.00;59.10;;;;;;5038045;28;19920;-37
2023/12/06 01:56:13;;;;;;;;;;;21.00;59.10;;;;;;5036634;28;19909;-36
2023/12/06 01:58:39;;;;;;;;;;;20.90;58.80;;;;;;5037408;28;19916;-37
2023/12/06 02:01:05;;;;;;;;;;;20.90;58.90;;;;;;5037319;28;19951;-37
2023/12/06 02:03:31;;;;;;;;;;;20.90;58.90;;;;;;5039017;28;19956;-37
2023/12/06 02:05:57;;;;;;;;;;;21.10;59.20;;;;;;5037886;28;20012;-37
2023/12/06 02:08:25;;;;;;;;;;;21.10;59.10;;;;;;5040989;28;19991;-37
2023/12/06 02:10:51;;;;;;;;;;;21.00;59.00;;;;;;5039751;28;19909;-37
2023/12/06 02:13:17;;;;;;;;;;;21.00;59.10;;;;;;5040048;28;20623;-37
2023/12/06 02:15:43;;;;;;;;;;;20.90;59.00;;;;;;5036469;28;19913;-37
2023/12/06 02:18:09;;;;;;;;;;;20.90;58.90;;;;;;5036504;28;19936;-37
2023/12/06 02:20:35;;;;;;;;;;;20.90;59.00;;;;;;5043658;28;19954;-37
2023/12/06 02:23:01;;;;;;;;;;;20.80;59.00;;;;;;5036597;28;19984;-37
2023/12/06 02:25:27;;;;;;;;;;;20.90;59.00;;;;;;5047399;28;19908;-37
2023/12/06 02:27:53;;;;;;;;;;;21.00;59.00;;;;;;5100894;28;19916;-37
2023/12/06 02:30:19;;;;;;;;;;;21.00;58.90;;;;;;5099265;28;19919;-37
2023/12/06 02:32:46;;;;;;;;;;;21.00;59.00;;;;;;5094840;28;19961;-37
2023/12/06 02:35:44;;;;;;;;;;;20.90;59.10;;;;;;5092283;28;19919;-37
2023/12/06 02:38:11;;;;;;;;;;;20.90;59.10;;;;;;5030726;28;19913;-37
2023/12/06 02:40:37;;;;;;;;;;;20.90;59.20;;;;;;5022061;28;19916;-37
2023/12/06 02:43:03;;;;;;;;;;;20.80;59.00;;;;;;5032765;28;20023;-37
2023/12/06 02:45:29;;;;;;;;;;;20.90;59.20;;;;;;5018661;28;19925;-37
2023/12/06 02:47:55;;;;;;;;;;;21.00;59.20;;;;;;5034466;28;19919;-37
2023/12/06 02:50:22;;;;;;;;;;;21.00;59.10;;;;;;5039372;28;19916;-36
2023/12/06 02:52:48;;;;;;;;;;;20.90;59.20;;;;;;5028371;28;19913;-37
2023/12/06 02:55:14;;;;;;;;;;;20.90;59.20;;;;;;5031343;28;20547;-37
2023/12/06 02:57:40;;;;;;;;;;;20.80;59.10;;;;;;5037410;28;19936;-37
2023/12/06 03:00:07;;;;;;;;;;;20.90;59.10;;;;;;5036004;28;19917;-37
2023/12/06 03:02:37;;;;;;;;;;;21.00;59.30;;;;;;5039009;28;19921;-37
2023/12/06 03:05:03;;;;;;;;;;;21.00;59.20;;;;;;5039042;28;19944;-38
2023/12/06 03:07:29;;;;;;;;;;;21.00;59.30;;;;;;5031644;28;19913;-37
2023/12/06 03:09:56;;;;;;;;;;;20.90;59.30;;;;;;5033007;28;19914;-37
2023/12/06 03:12:22;;;;;;;;;;;20.90;59.30;;;;;;5036888;28;19924;-39
2023/12/06 03:14:48;;;;;;;;;;;20.90;59.10;;;;;;5095853;28;20010;-37
2023/12/06 03:17:15;;;;;;;;;;;20.90;59.20;;;;;;5098872;28;19915;-37
2023/12/06 03:19:41;;;;;;;;;;;21.00;59.30;;;;;;5094213;28;19918;-37
2023/12/06 03:22:07;;;;;;;;;;;21.00;59.10;;;;;;5097649;28;19958;-37
2023/12/06 03:24:34;;;;;;;;;;;21.00;59.30;;;;;;5093097;28;20116;-37
2023/12/06 03:27:00;;;;;;;;;;;20.90;59.30;;;;;;5095983;28;19916;-37
2023/12/06 03:29:26;;;;;;;;;;;20.90;59.20;;;;;;5094820;28;19912;-38
2023/12/06 03:31:52;;;;;;;;;;;20.90;59.10;;;;;;5096444;28;19916;-38
2023/12/06 03:34:19;;;;;;;;;;;20.90;59.20;;;;;;5095413;28;19988;-38
2023/12/06 03:36:45;;;;;;;;;;;21.00;59.30;;;;;;5095931;28;19947;-37
2023/12/06 03:39:12;;;;;;;;;;;21.00;59.10;;;;;;5097558;28;19919;-37
2023/12/06 03:41:38;;;;;;;;;;;21.00;59.20;;;;;;5094988;28;20296;-38
2023/12/06 03:44:04;;;;;;;;;;;20.90;59.10;;;;;;5095552;28;19931;-38
2023/12/06 03:46:30;;;;;;;;;;;20.90;59.10;;;;;;5096832;28;19920;-38
2023/12/06 03:48:56;;;;;;;;;;;20.90;59.40;;;;;;5098842;28;19923;-38
2023/12/06 03:51:24;;;;;;;;;;;20.90;59.60;;;;;;5095074;28;20380;-38
2023/12/06 03:53:49;;;;;;;;;;;21.00;59.50;;;;;;5092343;28;19927;-37
2023/12/06 03:56:15;;;;;;;;;;;21.00;59.40;;;;;;5093130;28;19919;-38
2023/12/06 03:58:41;;;;;;;;;;;20.90;59.40;;;;;;5093680;28;19944;-38
2023/12/06 04:01:08;;;;;;;;;;;20.90;59.50;;;;;;5099426;28;20582;-39
2023/12/06 04:03:34;;;;;;;;;;;20.80;59.40;;;;;;5098703;28;19923;-38
2023/12/06 04:06:00;;;;;;;;;;;20.80;59.50;;;;;;5097886;28;19912;-38
2023/12/06 04:08:26;;;;;;;;;;;20.90;59.50;;;;;;5093340;28;20543;-38
2023/12/06 04:10:51;;;;;;;;;;;20.90;59.20;;;;;;5096619;28;19912;-43
2023/12/06 04:13:17;;;;;;;;;;;20.90;59.20;;;;;;5095884;28;19967;-38
2023/12/06 04:15:43;;;;;;;;;;;20.80;59.40;;;;;;5097447;28;19922;-38
2023/12/06 04:18:09;;;;;;;;;;;20.80;59.50;;;;;;5092400;28;19916;-38
2023/12/06 04:20:35;;;;;;;;;;;20.70;59.30;;;;;;5109560;28;19925;-38
2023/12/06 04:23:01;;;;;;;;;;;20.80;59.50;;;;;;5098742;28;19976;-38
2023/12/06 04:25:27;;;;;;;;;;;20.80;59.50;;;;;;5105358;28;19933;-38
2023/12/06 04:27:52;;;;;;;;;;;20.80;59.40;;;;;;5095814;28;20424;-38
2023/12/06 04:30:18;;;;;;;;;;;20.80;59.70;;;;;;5097746;28;20284;-38
2023/12/06 04:32:44;;;;;;;;;;;20.70;59.70;;;;;;5094570;28;19912;-38
2023/12/06 04:35:10;;;;;;;;;;;20.70;59.50;;;;;;5106515;28;19916;-38
2023/12/06 04:37:36;;;;;;;;;;;20.80;59.60;;;;;;5106267;28;19908;-38
2023/12/06 04:40:04;;;;;;;;;;;20.80;59.60;;;;;;5105009;28;20412;-38
2023/12/06 04:42:30;;;;;;;;;;;20.80;59.50;;;;;;5103799;28;19967;-38
2023/12/06 04:44:56;;;;;;;;;;;20.80;59.50;;;;;;5103265;28;19978;-39
2023/12/06 04:47:22;;;;;;;;;;;20.80;60.40;;;;;;5106524;28;19912;-38
2023/12/06 04:49:48;;;;;;;;;;;20.70;59.80;;;;;;5102838;28;19915;-39
2023/12/06 04:52:13;;;;;;;;;;;20.70;59.70;;;;;;5107453;28;19923;-39
2023/12/06 04:54:39;;;;;;;;;;;20.80;59.70;;;;;;5102337;28;19908;-39
2023/12/06 04:57:05;;;;;;;;;;;20.80;59.60;;;;;;5099158;28;19916;-39
2023/12/06 04:59:31;;;;;;;;;;;20.80;59.30;;;;;;5101558;28;19912;-38
2023/12/06 05:01:57;;;;;;;;;;;20.80;59.50;;;;;;5097865;28;19915;-39
2023/12/06 05:04:23;;;;;;;;;;;20.70;59.70;;;;;;5087505;28;19926;-38
2023/12/06 05:06:49;;;;;;;;;;;20.60;59.70;;;;;;5105407;28;20433;-38
2023/12/06 05:09:15;;;;;;;;;;;20.70;59.70;;;;;;5104651;28;19912;-38
2023/12/06 05:11:41;;;;;;;;;;;20.70;59.60;;;;;;5104290;28;19944;-38
2023/12/06 05:14:06;;;;;;;;;;;20.80;59.50;;;;;;5104284;28;20288;-39
2023/12/06 05:16:32;;;;;;;;;;;20.70;59.30;;;;;;5106211;28;19977;-38
2023/12/06 05:18:58;;;;;;;;;;;20.70;59.50;;;;;;5079458;28;19916;-38
2023/12/06 05:21:24;;;;;;;;;;;20.60;59.50;;;;;;5104002;28;19912;-38
2023/12/06 05:23:50;;;;;;;;;;;20.60;59.60;;;;;;5102529;28;19983;-38
2023/12/06 05:26:16;;;;;;;;;;;20.60;59.70;;;;;;5104997;28;19908;-38
2023/12/06 05:28:42;;;;;;;;;;;20.60;59.70;;;;;;5104519;28;19930;-43
2023/12/06 05:31:08;;;;;;;;;;;20.60;59.60;;;;;;5097378;28;19919;-38
2023/12/06 05:33:54;;;;;;;;;;;20.70;59.60;;;;;;5089126;28;19927;-38
2023/12/06 05:36:19;;;;;;;;;;;20.70;59.50;;;;;;5084033;28;20010;-38
2023/12/06 05:38:45;;;;;;;;;;;20.60;59.60;;;;;;5083370;28;19962;-38
2023/12/06 05:41:11;;;;;;;;;;;20.60;59.60;;;;;;5086088;28;19919;-38
2023/12/06 05:43:37;;;;;;;;;;;20.50;59.50;;;;;;5095692;28;19921;-38
2023/12/06 05:46:03;;;;;;;;;;;20.60;59.70;;;;;;5095569;28;19923;-38
2023/12/06 05:48:29;;;;;;;;;;;20.60;59.60;;;;;;5086530;28;19973;-38
2023/12/06 05:50:55;;;;;;;;;;;20.70;59.50;;;;;;5087083;28;19973;-38
2023/12/06 05:53:22;;;;;;;;;;;20.60;59.40;;;;;;5080081;28;19924;-39
2023/12/06 05:55:48;;;;;;;;;;;20.60;59.50;;;;;;5082387;28;19908;-38
2023/12/06 05:58:14;;;;;;;;;;;20.50;59.50;;;;;;5090641;28;19938;-38
2023/12/06 06:00:40;;;;;;;;;;;20.50;59.60;;;;;;5086316;28;19912;-37
2023/12/06 06:03:06;;;;;;;;;;;20.60;59.60;;;;;;5082925;28;19925;-37
2023/12/06 06:05:33;;;;;;;;;;;20.70;59.50;;;;;;5083186;28;19913;-37
2023/12/06 06:07:59;;;;;;;;;;;20.70;59.30;;;;;;5080167;28;19912;-37
2023/12/06 06:10:25;;;;;;;;;;;20.60;59.40;;;;;;5070401;28;20496;-37
2023/12/06 06:12:51;;;;;;;;;;;20.50;59.50;;;;;;5103513;28;19908;-37
2023/12/06 06:15:17;;;;;;;;;;;20.50;59.50;;;;;;5101645;28;19912;-38
2023/12/06 06:17:43;;;;;;;;;;;20.60;59.60;;;;;;5104693;28;19918;-38
2023/12/06 06:20:10;;;;;;;;;;;20.60;59.60;;;;;;5098509;28;19999;-38
2023/12/06 06:22:36;;;;;;;;;;;20.70;59.50;;;;;;5103919;28;19907;-38
2023/12/06 06:25:02;;;;;;;;;;;20.70;59.50;;;;;;5097493;28;19923;-38
2023/12/06 06:27:28;;;;;;;;;;;20.60;59.40;;;;;;5104534;28;19908;-38
2023/12/06 06:29:53;;;;;;;;;;;20.50;59.60;;;;;;5103920;28;19961;-38
2023/12/06 06:32:19;;;;;;;;;;;20.50;59.50;;;;;;5102845;28;20018;-38
2023/12/06 06:34:45;;;;;;;;;;;20.50;59.60;;;;;;5103266;28;19908;-38
2023/12/06 06:37:11;;;;;;;;;;;20.60;59.50;;;;;;5103424;28;19912;-39
2023/12/06 06:39:38;;;;;;;;;;;20.60;59.30;;;;;;5100065;28;19908;-38
2023/12/06 06:42:04;;;;;;;;;;;20.60;59.30;;;;;;5101699;28;19919;-38
2023/12/06 06:44:31;;;;;;;;;;;20.60;59.50;;;;;;5103048;28;19924;-38
2023/12/06 06:46:56;;;;;;;;;;;20.50;59.50;;;;;;5102808;28;19912;-38
2023/12/06 06:49:24;;;;;;;;;;;20.50;59.60;;;;;;5102825;28;19933;-38
2023/12/06 06:51:49;;;;;;;;;;;20.60;59.60;;;;;;5103169;28;19919;-39
2023/12/06 06:54:15;;;;;;;;;;;20.60;59.50;;;;;;5103637;28;19912;-38
2023/12/06 06:56:41;;;;;;;;;;;20.60;59.30;;;;;;5103450;28;19985;-38
2023/12/06 06:59:07;;;;;;;;;;;20.60;59.40;;;;;;5103287;28;19990;-38
2023/12/06 07:01:33;;;;;;;;;;;20.50;59.50;;;;;;5102451;28;19953;-38
2023/12/06 07:03:59;;;;;;;;;;;20.50;59.50;;;;;;5089662;28;19920;-38
2023/12/06 07:06:25;;;;;;;;;;;20.50;59.60;;;;;;5102796;28;20379;-38
2023/12/06 07:08:50;;;;;;;;;;;20.60;59.60;;;;;;5103143;28;20002;-38
2023/12/06 07:11:16;;;;;;;;;;;20.60;59.40;;;;;;5098932;28;19912;-38
2023/12/06 07:13:42;;;;;;;;;;;20.60;59.30;;;;;;5101922;28;20007;-38
2023/12/06 07:16:10;;;;;;;;;;;20.50;59.30;;;;;;5101887;28;19945;-38
2023/12/06 07:18:36;;;;;;;;;;;20.50;59.40;;;;;;5096176;28;19996;-38
2023/12/06 07:21:03;;;;;;;;;;;20.50;59.50;;;;;;5099899;28;19947;-38
2023/12/06 07:23:29;;;;;;;;;;;20.60;59.50;;;;;;5093548;28;20590;-38
2023/12/06 07:25:55;;;;;;;;;;;20.60;59.50;;;;;;5096589;28;19919;-41
2023/12/06 07:28:21;;;;;;;;;;;20.60;59.30;;;;;;5095092;28;19908;-38
2023/12/06 07:30:47;;;;;;;;;;;20.60;59.40;;;;;;5103099;28;20383;-38
2023/12/06 07:33:13;;;;;;;;;;;20.50;59.50;;;;;;5093380;28;19920;-38
2023/12/06 07:35:40;;;;;;;;;;;20.50;59.50;;;;;;5098090;28;19962;-38
2023/12/06 07:38:08;;;;;;;;;;;20.50;60.20;;;;;;5099238;28;19923;-39
2023/12/06 07:40:34;;;;;;;;;;;20.60;59.60;;;;;;5098899;28;20159;-38
2023/12/06 07:43:00;;;;;;;;;;;20.60;59.30;;;;;;5095228;28;19927;-39
2023/12/06 07:45:26;;;;;;;;;;;20.60;59.30;;;;;;5101095;28;20014;-38
2023/12/06 07:47:52;;;;;;;;;;;20.50;59.40;;;;;;5096266;28;19947;-39
2023/12/06 07:50:20;;;;;;;;;;;20.50;59.40;;;;;;5093435;28;19912;-39
2023/12/06 07:52:47;;;;;;;;;;;20.50;59.60;;;;;;5091796;28;20011;-38
2023/12/06 07:55:14;;;;;;;;;;;20.50;59.50;;;;;;5091321;28;19912;-39
2023/12/06 07:57:40;;;;;;;;;;;20.60;59.50;;;;;;5094250;28;19931;-40
2023/12/06 08:00:07;;;;;;;;;;;20.60;59.20;;;;;;5094295;28;19916;-38
2023/12/06 08:02:34;;;;;;;;;;;20.50;59.30;;;;;;5092536;28;19942;-38
2023/12/06 08:05:02;;;;;;;;;;;20.50;59.60;;;;;;5096448;28;19919;-39
2023/12/06 08:07:28;;;;;;;;;;;20.50;59.70;;;;;;5102513;28;19919;-39
2023/12/06 08:09:54;;;;;;;;;;;20.50;59.60;;;;;;5094862;28;19912;-38
2023/12/06 08:12:20;;;;;;;;;;;20.60;59.60;;;;;;5089751;28;19912;-38
2023/12/06 08:15:05;;;;;;;;;;;20.60;59.30;;;;;;5098012;28;19908;-38
2023/12/06 08:17:31;;;;;;;;;;;20.60;59.40;;;;;;5093579;28;19912;-38
2023/12/06 08:19:57;;;;;;;;;;;20.50;59.40;;;;;;5100389;28;19954;-38
2023/12/06 08:22:22;;;;;;;;;;;20.50;59.60;;;;;;5094992;28;19919;-38
2023/12/06 08:24:49;;;;;;;;;;;20.50;59.40;;;;;;5095386;28;19972;-39
2023/12/06 08:27:15;;;;;;;;;;;20.50;59.50;;;;;;5100016;28;20181;-38
2023/12/06 08:29:41;;;;;;;;;;;20.60;59.40;;;;;;5101650;28;20328;-38
2023/12/06 08:32:07;;;;;;;;;;;20.60;59.10;;;;;;5096093;28;20011;-38
2023/12/06 08:34:32;;;;;;;;;;;20.50;59.10;;;;;;5100785;28;19995;-38
2023/12/06 08:36:58;;;;;;;;;;;20.50;59.30;;;;;;5095723;28;19959;-39
2023/12/06 08:39:24;;;;;;;;;;;20.50;59.30;;;;;;5093887;28;19919;-37
2023/12/06 08:41:50;;;;;;;;;;;20.50;59.20;;;;;;5099904;28;20013;-38
2023/12/06 08:44:16;;;;;;;;;;;20.60;59.20;;;;;;5097852;28;19920;-38
2023/12/06 08:46:45;;;;;;;;;;;20.60;59.10;;;;;;5101192;28;19927;-38
2023/12/06 08:49:11;;;;;;;;;;;20.60;59.10;;;;;;5088214;28;19912;-38
2023/12/06 08:51:37;;;;;;;;;;;20.50;59.30;;;;;;5093712;28;20641;-38
2023/12/06 08:54:03;;;;;;;;;;;20.50;59.40;;;;;;5092634;28;19916;-38
2023/12/06 08:56:29;;;;;;;;;;;20.50;59.40;;;;;;5098578;28;19916;-38
2023/12/06 08:58:55;;;;;;;;;;;20.50;59.40;;;;;;5101402;28;19911;-38
2023/12/06 09:01:21;;;;;;;;;;;20.60;59.40;;;;;;5100185;28;19908;-38
2023/12/06 09:03:46;;;;;;;;;;;20.60;59.10;;;;;;5101312;28;19920;-39
2023/12/06 09:06:12;;;;;;;;;;;20.60;59.10;;;;;;5102164;28;19908;-38
2023/12/06 09:08:38;;;;;;;;;;;20.60;59.30;;;;;;5105357;28;19963;-47
2023/12/06 09:11:04;;;;;;;;;;;20.50;59.90;;;;;;5098034;28;19916;-37
2023/12/06 09:13:30;;;;;;;;;;;20.50;59.30;;;;;;5102542;28;19912;-37
2023/12/06 09:15:56;;;;;;;;;;;20.50;59.20;;;;;;5103718;28;19912;-38
2023/12/06 09:18:22;;;;;;;;;;;20.60;59.20;;;;;;5105890;28;19915;-38
2023/12/06 09:20:48;;;;;;;;;;;20.60;58.90;;;;;;5105405;28;19915;-38
2023/12/06 09:23:14;;;;;;;;;;;20.60;59.20;;;;;;5104235;28;19954;-38
2023/12/06 09:25:40;;;;;;;;;;;20.50;59.30;;;;;;5097170;28;20056;-38
2023/12/06 09:28:06;;;;;;;;;;;20.50;59.50;;;;;;5096220;28;19952;-38
2023/12/06 09:30:32;;;;;;;;;;;20.50;59.40;;;;;;5101097;28;19957;-38
2023/12/06 09:32:57;;;;;;;;;;;20.50;59.30;;;;;;5095338;28;19955;-38
2023/12/06 09:35:23;;;;;;;;;;;20.60;59.30;;;;;;5094654;28;19912;-38
2023/12/06 09:37:49;;;;;;;;;;;20.60;59.10;;;;;;5104033;28;19916;-38
2023/12/06 09:40:15;;;;;;;;;;;20.60;59.00;;;;;;5097521;28;19912;-38
2023/12/06 09:42:44;;;;;;;;;;;20.50;59.20;;;;;;5102285;28;19912;-38
2023/12/06 09:45:10;;;;;;;;;;;20.50;59.20;;;;;;5110819;27;19962;-39
2023/12/06 09:47:36;;;;;;;;;;;20.50;59.30;;;;;;5118660;28;20448;-39
2023/12/06 09:50:02;;;;;;;;;;;20.60;59.30;;;;;;5082849;28;19912;-38
2023/12/06 09:52:28;;;;;;;;;;;20.60;59.10;;;;;;5102041;28;19912;-38
2023/12/06 09:54:55;;;;;;;;;;;20.60;58.90;;;;;;5099455;28;19916;-38
2023/12/06 09:57:21;;;;;;;;;;;20.60;59.30;;;;;;5098594;28;19908;-38
2023/12/06 09:59:47;;;;;;;;;;;20.50;59.30;;;;;;5098862;28;20359;-38
2023/12/06 10:02:12;;;;;;;;;;;20.50;59.40;;;;;;5102381;28;19915;-38
2023/12/06 10:04:38;;;;;;;;;;;20.50;59.40;;;;;;5101469;28;19995;-39
2023/12/06 10:07:04;;;;;;;;;;;20.60;59.30;;;;;;5098493;28;19916;-38
2023/12/06 10:09:30;;;;;;;;;;;20.60;59.20;;;;;;5100547;28;19987;-38
2023/12/06 10:12:05;;;;;;;;;;;20.70;59.00;;;;;;5116611;28;19912;-38
2023/12/06 10:14:32;;;;;;;;;;;20.60;58.90;;;;;;5078398;28;19912;-38
2023/12/06 10:16:57;;;;;;;;;;;20.60;59.10;;;;;;5096881;28;19912;-38
2023/12/06 10:19:23;;;;;;;;;;;20.50;59.10;;;;;;5101445;28;19922;-38
2023/12/06 10:21:49;;;;;;;;;;;20.50;59.10;;;;;;5099085;28;19919;-38
2023/12/06 10:24:15;;;;;;;;;;;20.60;59.10;;;;;;5100012;28;19916;-38
2023/12/06 10:26:41;;;;;;;;;;;20.60;59.00;;;;;;5097857;28;19965;-37
2023/12/06 10:29:07;;;;;;;;;;;20.60;59.00;;;;;;5093290;28;19923;-38
2023/12/06 10:31:42;;;;;;;;;;;20.60;59.10;;;;;;5092301;28;20365;-38
2023/12/06 10:34:08;;;;;;;;;;;20.60;59.10;;;;;;5097344;28;19911;-37
2023/12/06 10:36:34;;;;;;;;;;;20.50;59.10;;;;;;5099276;28;19965;-38
2023/12/06 10:38:59;;;;;;;;;;;20.50;59.20;;;;;;5095574;28;19944;-38
2023/12/06 10:41:25;;;;;;;;;;;20.60;59.00;;;;;;5100858;28;19919;-38
2023/12/06 10:43:52;;;;;;;;;;;20.70;59.00;;;;;;5099437;28;20006;-38
2023/12/06 10:46:18;;;;;;;;;;;20.60;58.80;;;;;;5090219;28;19983;-38
2023/12/06 10:48:44;;;;;;;;;;;20.60;59.00;;;;;;5073376;28;19967;-38
2023/12/06 10:51:10;;;;;;;;;;;20.50;59.10;;;;;;5094212;28;19955;-38
2023/12/06 10:53:36;;;;;;;;;;;20.50;59.10;;;;;;5096743;28;19920;-38
2023/12/06 10:56:02;;;;;;;;;;;20.50;59.10;;;;;;5093770;28;19912;-38
2023/12/06 10:58:28;;;;;;;;;;;20.60;59.00;;;;;;5075934;28;19912;-37
2023/12/06 11:00:54;;;;;;;;;;;20.60;58.80;;;;;;5074563;28;19912;-37
2023/12/06 11:03:20;;;;;;;;;;;20.60;58.60;;;;;;5078846;28;20004;-38
2023/12/06 11:05:47;;;;;;;;;;;20.60;58.90;;;;;;5078902;28;19962;-43
2023/12/06 11:08:19;;;;;;;;;;;20.50;58.90;;;;;;5081236;28;19919;-38
2023/12/06 11:10:48;;;;;;;;;;;20.50;58.90;;;;;;5080902;28;20356;-38
2023/12/06 11:13:17;;;;;;;;;;;20.60;58.90;;;;;;5074822;28;19916;-38
2023/12/06 11:15:55;;;;;;;;;;;20.60;58.70;;;;;;5077079;28;19908;-38
2023/12/06 11:18:23;;;;;;;;;;;20.60;59.00;;;;;;5080196;28;19908;-38
2023/12/06 11:20:49;;;;;;;;;;;20.60;59.20;;;;;;5074840;28;19924;-38
2023/12/06 11:23:16;;;;;;;;;;;20.50;59.10;;;;;;5080952;28;19927;-38
2023/12/06 11:25:42;;;;;;;;;;;20.50;59.10;;;;;;5078703;28;19909;-38
2023/12/06 11:28:12;;;;;;;;;;;20.60;59.10;;;;;;5079134;28;19912;-38
2023/12/06 11:30:47;;;;;;;;;;;20.60;58.80;;;;;;5080859;28;19913;-38
2023/12/06 11:33:13;;;;;;;;;;;20.70;58.60;;;;;;5076384;28;19938;-38
2023/12/06 11:35:45;;;;;;;;;;;20.70;58.60;;;;;;5073942;28;19908;-38
2023/12/06 11:38:11;;;;;;;;;;;20.60;58.70;;;;;;5074618;28;19954;-38
2023/12/06 11:40:37;;;;;;;;;;;20.60;58.70;;;;;;5073608;28;20280;-38
2023/12/06 11:43:03;;;;;;;;;;;20.60;58.80;;;;;;5080403;28;19954;-38
2023/12/06 11:45:30;;;;;;;;;;;20.60;58.60;;;;;;5092615;28;19920;-38
2023/12/06 11:47:59;;;;;;;;;;;20.70;58.40;;;;;;5116388;28;19912;-38
2023/12/06 11:50:25;;;;;;;;;;;20.70;58.40;;;;;;5092592;28;19923;-38
2023/12/06 11:52:51;;;;;;;;;;;20.60;58.50;;;;;;5099501;28;19912;-38
2023/12/06 11:55:17;;;;;;;;;;;20.60;58.60;;;;;;5109105;28;19912;-38
2023/12/06 11:58:00;;;;;;;;;;;20.60;58.80;;;;;;5095518;28;19935;-39
2023/12/06 12:00:26;;;;;;;;;;;20.60;58.70;;;;;;5097665;28;19912;-38
2023/12/06 12:02:52;;;;;;;;;;;20.70;58.60;;;;;;5101713;28;19916;-38
2023/12/06 12:05:18;;;;;;;;;;;20.70;58.50;;;;;;5094943;28;19912;-39
2023/12/06 12:07:44;;;;;;;;;;;20.70;58.50;;;;;;5111196;28;20030;-39
2023/12/06 12:10:09;;;;;;;;;;;20.60;58.50;;;;;;5099196;28;19916;-38
2023/12/06 12:12:36;;;;;;;;;;;20.60;58.70;;;;;;5101987;28;19983;-39
2023/12/06 12:15:04;;;;;;;;;;;20.60;58.60;;;;;;5101432;28;20296;-39
2023/12/06 12:17:30;;;;;;;;;;;20.60;58.50;;;;;;5102246;28;19988;-38
2023/12/06 12:19:56;;;;;;;;;;;20.70;58.50;;;;;;5099957;28;19925;-39
2023/12/06 12:22:22;;;;;;;;;;;20.70;58.50;;;;;;5097804;28;19912;-39
2023/12/06 12:24:48;;;;;;;;;;;20.60;58.30;;;;;;5101669;28;19971;-39
2023/12/06 12:27:18;;;;;;;;;;;20.60;58.40;;;;;;5093652;28;19938;-38
2023/12/06 12:29:44;;;;;;;;;;;20.50;58.40;;;;;;5092927;28;19937;-38
2023/12/06 12:32:10;;;;;;;;;;;20.60;58.50;;;;;;5095267;28;19977;-38
2023/12/06 12:34:36;;;;;;;;;;;20.60;58.40;;;;;;5096939;28;20361;-38
2023/12/06 12:37:02;;;;;;;;;;;20.70;58.30;;;;;;5093581;28;20680;-38
2023/12/06 12:39:28;;;;;;;;;;;20.70;58.20;;;;;;5093120;28;19918;-38
2023/12/06 12:41:55;;;;;;;;;;;20.70;58.10;;;;;;5096414;28;19965;-38
2023/12/06 12:44:20;;;;;;;;;;;20.60;58.20;;;;;;5098230;28;19987;-38
2023/12/06 12:46:46;;;;;;;;;;;20.60;58.30;;;;;;5092292;28;19916;-37
2023/12/06 12:49:12;;;;;;;;;;;20.50;58.40;;;;;;5103445;28;19912;-37
2023/12/06 12:51:38;;;;;;;;;;;20.60;58.40;;;;;;5101401;28;19912;-37
2023/12/06 12:54:04;;;;;;;;;;;20.70;58.20;;;;;;5106520;28;19938;-38
2023/12/06 12:56:30;;;;;;;;;;;20.60;58.30;;;;;;5101972;28;19912;-38
2023/12/06 12:58:56;;;;;;;;;;;20.60;58.30;;;;;;5097534;28;19927;-38
2023/12/06 13:01:22;;;;;;;;;;;20.50;58.40;;;;;;5103750;28;19908;-38
2023/12/06 13:03:47;;;;;;;;;;;20.50;58.40;;;;;;5115069;27;20010;-37
2023/12/06 13:06:13;;;;;;;;;;;20.60;58.40;;;;;;5117977;28;19912;-37
2023/12/06 13:08:41;;;;;;;;;;;20.60;58.40;;;;;;5076749;28;19985;-37
2023/12/06 13:11:08;;;;;;;;;;;20.70;58.30;;;;;;5105132;28;20018;-37
2023/12/06 13:13:34;;;;;;;;;;;20.60;58.20;;;;;;5102640;28;19998;-38
2023/12/06 13:16:00;;;;;;;;;;;20.60;58.30;;;;;;5101001;28;19954;-37
2023/12/06 13:18:26;;;;;;;;;;;20.50;58.30;;;;;;5106518;28;19915;-38
2023/12/06 13:20:52;;;;;;;;;;;20.50;58.40;;;;;;5104989;28;19915;-38
2023/12/06 13:23:18;;;;;;;;;;;20.60;58.40;;;;;;5106098;28;19983;-38
2023/12/06 13:25:44;;;;;;;;;;;20.60;58.20;;;;;;5101911;28;20173;-38
2023/12/06 13:28:10;;;;;;;;;;;20.60;57.90;;;;;;5099609;28;19918;-38
2023/12/06 13:30:36;;;;;;;;;;;20.60;57.90;;;;;;5098299;28;19908;-38
2023/12/06 13:33:02;;;;;;;;;;;20.50;58.10;;;;;;5097052;28;19972;-38
2023/12/06 13:35:28;;;;;;;;;;;20.50;58.20;;;;;;5094310;28;19907;-38
2023/12/06 13:37:57;;;;;;;;;;;20.60;58.20;;;;;;5096717;28;19930;-38
2023/12/06 13:40:23;;;;;;;;;;;20.60;58.10;;;;;;5102794;28;19908;-38
2023/12/06 13:42:49;;;;;;;;;;;20.60;57.90;;;;;;5100896;28;19927;-38
2023/12/06 13:45:15;;;;;;;;;;;20.60;58.00;;;;;;5100299;28;19927;-38
2023/12/06 13:47:41;;;;;;;;;;;20.50;58.20;;;;;;5101182;28;19967;-38
2023/12/06 13:50:07;;;;;;;;;;;20.50;58.20;;;;;;5099314;28;20436;-38
2023/12/06 13:52:33;;;;;;;;;;;20.50;58.30;;;;;;5090243;28;19962;-38
2023/12/06 13:54:58;;;;;;;;;;;20.60;58.40;;;;;;5099928;28;20292;-38
2023/12/06 13:57:24;;;;;;;;;;;20.60;58.40;;;;;;5094729;28;19923;-38
2023/12/06 13:59:50;;;;;;;;;;;20.60;58.20;;;;;;5098688;28;19912;-39
2023/12/06 14:02:16;;;;;;;;;;;20.60;58.20;;;;;;5098373;28;19997;-38
2023/12/06 14:04:42;;;;;;;;;;;20.50;58.40;;;;;;5104159;28;19920;-39
2023/12/06 14:07:08;;;;;;;;;;;20.50;58.40;;;;;;5091502;28;19916;-39
2023/12/06 14:09:34;;;;;;;;;;;20.50;58.40;;;;;;5094358;28;19971;-38
2023/12/06 14:12:02;;;;;;;;;;;20.60;58.30;;;;;;5093924;28;19912;-38